sensor_id;sensor_type;location;lat;lon;timestamp;pressure;altitude;pressure_sealevel;temperature;humidity
23166;BME280;11751;42.700;24.170;2023-04-30T00:00:31;93645.03;;;10.25;nan
23166;BME280;11751;42.700;24.170;2023-04-30T00:02:57;93651.03;;;10.22;nan
23166;BME280;11751;42.700;24.170;2023-04-30T00:05:22;93640.56;;;10.22;nan
23166;BME280;11751;42.700;24.170;2023-04-30T00:07:48;93628.28;;;10.18;nan
23166;BME280;11751;42.700;24.170;2023-04-30T00:10:13;93641.63;;;10.34;nan
23166;BME280;11751;42.700;24.170;2023-04-30T00:12:38;93640.75;;;10.24;nan
23166;BME280;11751;42.700;24.170;2023-04-30T00:15:04;93633.84;;;10.25;nan
23166;BME280;11751;42.700;24.170;2023-04-30T00:17:30;93639.81;;;10.22;nan
23166;BME280;11751;42.700;24.170;2023-04-30T00:19:55;93635.41;;;9.96;nan
23166;BME280;11751;42.700;24.170;2023-04-30T00:22:20;93629.47;;;10.00;nan
23166;BME280;11751;42.700;24.170;2023-04-30T00:24:46;93638.38;;;10.06;nan
23166;BME280;11751;42.700;24.170;2023-04-30T00:27:12;93634.13;;;9.90;nan
23166;BME280;11751;42.700;24.170;2023-04-30T00:29:37;93636.59;;;9.78;nan
23166;BME280;11751;42.700;24.170;2023-04-30T00:32:03;93638.81;;;9.80;nan
23166;BME280;11751;42.700;24.170;2023-04-30T00:34:28;93636.59;;;9.56;nan
23166;BME280;11751;42.700;24.170;2023-04-30T00:36:53;93625.81;;;9.60;nan
23166;BME280;11751;42.700;24.170;2023-04-30T00:39:19;93635.50;;;9.59;nan
23166;BME280;11751;42.700;24.170;2023-04-30T00:41:45;93639.25;;;9.54;nan
23166;BME280;11751;42.700;24.170;2023-04-30T00:44:10;93635.50;;;9.59;nan
23166;BME280;11751;42.700;24.170;2023-04-30T00:46:35;93641.47;;;9.48;nan
23166;BME280;11751;42.700;24.170;2023-04-30T00:49:01;93636.66;;;9.41;nan
23166;BME280;11751;42.700;24.170;2023-04-30T00:51:30;93635.91;;;9.33;nan
23166;BME280;11751;42.700;24.170;2023-04-30T00:53:57;93648.19;;;9.30;nan
23166;BME280;11751;42.700;24.170;2023-04-30T00:56:24;93641.13;;;9.29;nan
23166;BME280;11751;42.700;24.170;2023-04-30T00:58:50;93643.72;;;9.27;nan
23166;BME280;11751;42.700;24.170;2023-04-30T01:01:24;93636.28;;;9.22;nan
23166;BME280;11751;42.700;24.170;2023-04-30T01:03:50;93634.41;;;9.17;nan
23166;BME280;11751;42.700;24.170;2023-04-30T01:06:16;93632.16;;;9.01;nan
23166;BME280;11751;42.700;24.170;2023-04-30T01:08:41;93633.31;;;8.98;nan
23166;BME280;11751;42.700;24.170;2023-04-30T01:14:31;93633.28;;;8.83;nan
23166;BME280;11751;42.700;24.170;2023-04-30T01:17:07;93638.50;;;8.79;nan
23166;BME280;11751;42.700;24.170;2023-04-30T01:19:39;93640.19;;;8.74;nan
23166;BME280;11751;42.700;24.170;2023-04-30T01:22:09;93633.81;;;8.66;nan
23166;BME280;11751;42.700;24.170;2023-04-30T01:29:58;93629.50;;;8.50;nan
23166;BME280;11751;42.700;24.170;2023-04-30T01:32:25;93638.44;;;8.49;nan
23166;BME280;11751;42.700;24.170;2023-04-30T01:34:51;93636.19;;;8.48;nan
23166;BME280;11751;42.700;24.170;2023-04-30T01:40:29;93630.75;;;8.27;nan
23166;BME280;11751;42.700;24.170;2023-04-30T01:43:27;93635.03;;;8.28;nan
23166;BME280;11751;42.700;24.170;2023-04-30T01:48:53;93638.19;;;8.25;nan
23166;BME280;11751;42.700;24.170;2023-04-30T01:51:39;93636.03;;;8.03;nan
23166;BME280;11751;42.700;24.170;2023-04-30T01:54:16;93634.94;;;8.06;nan
23166;BME280;11751;42.700;24.170;2023-04-30T01:56:51;93633.44;;;8.05;nan
23166;BME280;11751;42.700;24.170;2023-04-30T01:59:18;93628.56;;;7.90;nan
23166;BME280;11751;42.700;24.170;2023-04-30T02:01:45;93619.28;;;7.95;nan
23166;BME280;11751;42.700;24.170;2023-04-30T02:04:10;93628.56;;;7.98;nan
23166;BME280;11751;42.700;24.170;2023-04-30T02:06:36;93622.41;;;7.92;nan
23166;BME280;11751;42.700;24.170;2023-04-30T02:09:01;93620.44;;;8.07;nan
23166;BME280;11751;42.700;24.170;2023-04-30T02:11:29;93631.78;;;8.09;nan
23166;BME280;11751;42.700;24.170;2023-04-30T02:13:54;93618.22;;;8.06;nan
23166;BME280;11751;42.700;24.170;2023-04-30T02:16:20;93621.16;;;8.08;nan
23166;BME280;11751;42.700;24.170;2023-04-30T02:18:46;93629.72;;;8.10;nan
23166;BME280;11751;42.700;24.170;2023-04-30T02:21:12;93627.16;;;8.12;nan
23166;BME280;11751;42.700;24.170;2023-04-30T02:23:38;93629.94;;;8.12;nan
23166;BME280;11751;42.700;24.170;2023-04-30T02:26:03;93629.38;;;8.06;nan
23166;BME280;11751;42.700;24.170;2023-04-30T02:28:29;93627.09;;;8.04;nan
23166;BME280;11751;42.700;24.170;2023-04-30T02:30:54;93634.56;;;8.09;nan
23166;BME280;11751;42.700;24.170;2023-04-30T02:33:20;93628.59;;;8.05;nan
23166;BME280;11751;42.700;24.170;2023-04-30T02:35:45;93625.25;;;7.99;nan
23166;BME280;11751;42.700;24.170;2023-04-30T02:38:11;93623.75;;;7.98;nan
23166;BME280;11751;42.700;24.170;2023-04-30T02:40:36;93624.47;;;7.99;nan
23166;BME280;11751;42.700;24.170;2023-04-30T02:43:02;93625.59;;;7.96;nan
23166;BME280;11751;42.700;24.170;2023-04-30T02:45:27;93630.63;;;7.97;nan
23166;BME280;11751;42.700;24.170;2023-04-30T02:47:52;93629.28;;;7.91;nan
23166;BME280;11751;42.700;24.170;2023-04-30T02:50:18;93631.69;;;7.87;nan
23166;BME280;11751;42.700;24.170;2023-04-30T02:52:45;93632.22;;;7.85;nan
23166;BME280;11751;42.700;24.170;2023-04-30T02:55:11;93631.25;;;7.68;nan
23166;BME280;11751;42.700;24.170;2023-04-30T02:57:36;93637.38;;;7.74;nan
23166;BME280;11751;42.700;24.170;2023-04-30T03:00:03;93636.00;;;7.60;nan
23166;BME280;11751;42.700;24.170;2023-04-30T03:02:29;93634.91;;;7.63;nan
23166;BME280;11751;42.700;24.170;2023-04-30T03:04:54;93638.09;;;7.67;nan
23166;BME280;11751;42.700;24.170;2023-04-30T03:07:19;93636.59;;;7.66;nan
23166;BME280;11751;42.700;24.170;2023-04-30T03:09:45;93647.34;;;7.62;nan
23166;BME280;11751;42.700;24.170;2023-04-30T03:12:11;93634.34;;;7.57;nan
23166;BME280;11751;42.700;24.170;2023-04-30T03:14:36;93645.00;;;7.38;nan
23166;BME280;11751;42.700;24.170;2023-04-30T03:17:01;93641.78;;;7.34;nan
23166;BME280;11751;42.700;24.170;2023-04-30T03:19:27;93643.53;;;7.45;nan
23166;BME280;11751;42.700;24.170;2023-04-30T03:21:53;93645.00;;;7.46;nan
23166;BME280;11751;42.700;24.170;2023-04-30T03:24:19;93636.81;;;7.40;nan
23166;BME280;11751;42.700;24.170;2023-04-30T03:26:45;93645.78;;;7.46;nan
23166;BME280;11751;42.700;24.170;2023-04-30T03:29:11;93651.72;;;7.50;nan
23166;BME280;11751;42.700;24.170;2023-04-30T03:31:36;93643.72;;;7.47;nan
23166;BME280;11751;42.700;24.170;2023-04-30T03:34:01;93649.84;;;7.45;nan
23166;BME280;11751;42.700;24.170;2023-04-30T03:36:27;93643.13;;;7.41;nan
23166;BME280;11751;42.700;24.170;2023-04-30T03:38:52;93643.84;;;7.34;nan
23166;BME280;11751;42.700;24.170;2023-04-30T03:41:18;93641.59;;;7.32;nan
23166;BME280;11751;42.700;24.170;2023-04-30T03:43:43;93647.94;;;7.40;nan
23166;BME280;11751;42.700;24.170;2023-04-30T03:46:09;93655.44;;;7.45;nan
23166;BME280;11751;42.700;24.170;2023-04-30T03:48:34;93657.28;;;7.50;nan
23166;BME280;11751;42.700;24.170;2023-04-30T03:51:00;93649.91;;;7.53;nan
23166;BME280;11751;42.700;24.170;2023-04-30T03:53:25;93649.56;;;7.56;nan
23166;BME280;11751;42.700;24.170;2023-04-30T03:55:52;93659.25;;;7.63;nan
23166;BME280;11751;42.700;24.170;2023-04-30T03:58:19;93665.97;;;7.67;nan
23166;BME280;11751;42.700;24.170;2023-04-30T04:00:45;93667.63;;;7.70;nan
23166;BME280;11751;42.700;24.170;2023-04-30T04:03:12;93669.53;;;7.75;nan
23166;BME280;11751;42.700;24.170;2023-04-30T04:05:38;93674.41;;;7.82;nan
23166;BME280;11751;42.700;24.170;2023-04-30T04:08:04;93678.69;;;7.83;nan
23166;BME280;11751;42.700;24.170;2023-04-30T04:10:31;93674.81;;;7.86;nan
23166;BME280;11751;42.700;24.170;2023-04-30T04:12:56;93679.09;;;7.87;nan
23166;BME280;11751;42.700;24.170;2023-04-30T04:15:21;93676.47;;;7.89;nan
23166;BME280;11751;42.700;24.170;2023-04-30T04:17:47;93670.56;;;7.92;nan
23166;BME280;11751;42.700;24.170;2023-04-30T04:20:12;93681.00;;;7.99;nan
23166;BME280;11751;42.700;24.170;2023-04-30T04:22:38;93671.81;;;8.19;nan
23166;BME280;11751;42.700;24.170;2023-04-30T04:25:03;93672.22;;;8.31;nan
23166;BME280;11751;42.700;24.170;2023-04-30T04:27:29;93669.41;;;8.88;nan
23166;BME280;11751;42.700;24.170;2023-04-30T04:29:54;93682.47;;;9.38;nan
23166;BME280;11751;42.700;24.170;2023-04-30T04:32:20;93682.06;;;9.71;nan
23166;BME280;11751;42.700;24.170;2023-04-30T04:34:46;93665.94;;;10.17;nan
23166;BME280;11751;42.700;24.170;2023-04-30T04:37:13;93660.63;;;10.43;nan
23166;BME280;11751;42.700;24.170;2023-04-30T04:39:39;93670.47;;;10.83;nan
23166;BME280;11751;42.700;24.170;2023-04-30T04:42:05;93675.16;;;11.37;nan
23166;BME280;11751;42.700;24.170;2023-04-30T04:44:30;93675.41;;;11.97;nan
23166;BME280;11751;42.700;24.170;2023-04-30T04:46:56;93675.66;;;12.25;nan
23166;BME280;11751;42.700;24.170;2023-04-30T04:49:22;93684.41;;;12.46;nan
23166;BME280;11751;42.700;24.170;2023-04-30T04:51:48;93678.78;;;13.06;nan
23166;BME280;11751;42.700;24.170;2023-04-30T04:54:13;93678.53;;;13.83;nan
23166;BME280;11751;42.700;24.170;2023-04-30T04:56:39;93690.50;;;14.39;nan
23166;BME280;11751;42.700;24.170;2023-04-30T04:59:04;93688.44;;;14.58;nan
23166;BME280;11751;42.700;24.170;2023-04-30T05:01:29;93668.03;;;15.26;nan
23166;BME280;11751;42.700;24.170;2023-04-30T05:03:55;93675.41;;;15.80;nan
23166;BME280;11751;42.700;24.170;2023-04-30T05:06:20;93686.28;;;16.04;nan
23166;BME280;11751;42.700;24.170;2023-04-30T05:08:46;93683.25;;;16.42;nan
23166;BME280;11751;42.700;24.170;2023-04-30T05:11:11;93685.94;;;16.82;nan
23166;BME280;11751;42.700;24.170;2023-04-30T05:13:37;93676.22;;;16.85;nan
23166;BME280;11751;42.700;24.170;2023-04-30T05:16:02;93682.63;;;17.17;nan
23166;BME280;11751;42.700;24.170;2023-04-30T05:18:28;93693.09;;;17.47;nan
23166;BME280;11751;42.700;24.170;2023-04-30T05:20:53;93683.47;;;17.52;nan
23166;BME280;11751;42.700;24.170;2023-04-30T05:23:19;93688.81;;;17.25;nan
23166;BME280;11751;42.700;24.170;2023-04-30T05:25:44;93697.50;;;17.50;nan
23166;BME280;11751;42.700;24.170;2023-04-30T05:28:10;93693.50;;;17.76;nan
23166;BME280;11751;42.700;24.170;2023-04-30T05:30:36;93696.06;;;17.72;nan
23166;BME280;11751;42.700;24.170;2023-04-30T05:33:01;93697.00;;;17.54;nan
23166;BME280;11751;42.700;24.170;2023-04-30T05:35:26;93685.78;;;16.80;nan
23166;BME280;11751;42.700;24.170;2023-04-30T05:37:52;93690.13;;;17.13;nan
23166;BME280;11751;42.700;24.170;2023-04-30T05:40:17;93690.38;;;16.64;nan
23166;BME280;11751;42.700;24.170;2023-04-30T05:42:43;93699.28;;;16.49;nan
23166;BME280;11751;42.700;24.170;2023-04-30T05:45:09;93685.94;;;16.61;nan
23166;BME280;11751;42.700;24.170;2023-04-30T05:47:36;93687.84;;;16.68;nan
23166;BME280;11751;42.700;24.170;2023-04-30T05:50:02;93679.31;;;16.89;nan
23166;BME280;11751;42.700;24.170;2023-04-30T05:52:27;93687.38;;;17.04;nan
23166;BME280;11751;42.700;24.170;2023-04-30T05:54:53;93681.41;;;17.20;nan
23166;BME280;11751;42.700;24.170;2023-04-30T05:57:18;93688.13;;;17.36;nan
23166;BME280;11751;42.700;24.170;2023-04-30T05:59:44;93682.09;;;17.10;nan
23166;BME280;11751;42.700;24.170;2023-04-30T06:02:09;93688.03;;;17.13;nan
23166;BME280;11751;42.700;24.170;2023-04-30T06:04:35;93679.06;;;16.85;nan
23166;BME280;11751;42.700;24.170;2023-04-30T06:07:00;93684.28;;;17.00;nan
23166;BME280;11751;42.700;24.170;2023-04-30T06:09:26;93674.00;;;17.15;nan
23166;BME280;11751;42.700;24.170;2023-04-30T06:11:52;93676.78;;;16.72;nan
23166;BME280;11751;42.700;24.170;2023-04-30T06:14:17;93684.81;;;17.08;nan
23166;BME280;11751;42.700;24.170;2023-04-30T06:16:44;93684.75;;;16.96;nan
23166;BME280;11751;42.700;24.170;2023-04-30T06:19:10;93683.63;;;16.90;nan
23166;BME280;11751;42.700;24.170;2023-04-30T06:21:36;93686.50;;;16.69;nan
23166;BME280;11751;42.700;24.170;2023-04-30T06:24:02;93684.44;;;16.81;nan
23166;BME280;11751;42.700;24.170;2023-04-30T06:26:27;93678.63;;;17.00;nan
23166;BME280;11751;42.700;24.170;2023-04-30T06:28:53;93680.09;;;17.01;nan
23166;BME280;11751;42.700;24.170;2023-04-30T06:31:18;93686.81;;;17.16;nan
23166;BME280;11751;42.700;24.170;2023-04-30T06:33:43;93683.19;;;16.72;nan
23166;BME280;11751;42.700;24.170;2023-04-30T06:36:09;93685.06;;;17.12;nan
23166;BME280;11751;42.700;24.170;2023-04-30T06:38:34;93669.72;;;17.14;nan
23166;BME280;11751;42.700;24.170;2023-04-30T06:41:00;93677.91;;;17.11;nan
23166;BME280;11751;42.700;24.170;2023-04-30T06:43:25;93676.09;;;17.47;nan
23166;BME280;11751;42.700;24.170;2023-04-30T06:45:51;93675.34;;;17.58;nan
23166;BME280;11751;42.700;24.170;2023-04-30T06:48:16;93664.69;;;17.91;nan
23166;BME280;11751;42.700;24.170;2023-04-30T06:50:41;93667.66;;;17.93;nan
23166;BME280;11751;42.700;24.170;2023-04-30T06:53:12;93668.25;;;18.03;nan
23166;BME280;11751;42.700;24.170;2023-04-30T06:55:39;93678.38;;;18.29;nan
23166;BME280;11751;42.700;24.170;2023-04-30T06:58:04;93679.22;;;18.43;nan
23166;BME280;11751;42.700;24.170;2023-04-30T07:00:30;93677.28;;;18.70;nan
23166;BME280;11751;42.700;24.170;2023-04-30T07:02:56;93681.59;;;18.83;nan
23166;BME280;11751;42.700;24.170;2023-04-30T07:05:25;93684.25;;;19.03;nan
23166;BME280;11751;42.700;24.170;2023-04-30T07:07:50;93686.44;;;19.41;nan
23166;BME280;11751;42.700;24.170;2023-04-30T07:10:16;93669.59;;;19.45;nan
23166;BME280;11751;42.700;24.170;2023-04-30T07:12:42;93689.25;;;19.16;nan
23166;BME280;11751;42.700;24.170;2023-04-30T07:15:08;93685.81;;;19.18;nan
23166;BME280;11751;42.700;24.170;2023-04-30T07:17:34;93689.78;;;19.63;nan
23166;BME280;11751;42.700;24.170;2023-04-30T07:19:59;93679.00;;;19.48;nan
23166;BME280;11751;42.700;24.170;2023-04-30T07:22:25;93686.00;;;19.33;nan
23166;BME280;11751;42.700;24.170;2023-04-30T07:24:51;93682.91;;;19.54;nan
23166;BME280;11751;42.700;24.170;2023-04-30T07:27:17;93676.00;;;19.32;nan
23166;BME280;11751;42.700;24.170;2023-04-30T07:29:42;93683.94;;;19.22;nan
23166;BME280;11751;42.700;24.170;2023-04-30T07:32:07;93684.34;;;19.17;nan
23166;BME280;11751;42.700;24.170;2023-04-30T07:34:33;93678.75;;;19.19;nan
23166;BME280;11751;42.700;24.170;2023-04-30T07:36:58;93687.00;;;19.26;nan
23166;BME280;11751;42.700;24.170;2023-04-30T07:39:24;93685.34;;;19.35;nan
23166;BME280;11751;42.700;24.170;2023-04-30T07:41:49;93684.69;;;19.48;nan
23166;BME280;11751;42.700;24.170;2023-04-30T07:44:15;93686.19;;;19.37;nan
23166;BME280;11751;42.700;24.170;2023-04-30T07:46:40;93691.66;;;19.58;nan
23166;BME280;11751;42.700;24.170;2023-04-30T07:49:06;93689.38;;;19.18;nan
23166;BME280;11751;42.700;24.170;2023-04-30T07:51:31;93692.50;;;18.99;nan
23166;BME280;11751;42.700;24.170;2023-04-30T07:53:58;93684.16;;;19.51;nan
23166;BME280;11751;42.700;24.170;2023-04-30T07:56:23;93686.44;;;19.41;nan
23166;BME280;11751;42.700;24.170;2023-04-30T07:58:49;93681.75;;;19.59;nan
23166;BME280;11751;42.700;24.170;2023-04-30T08:01:15;93677.88;;;19.66;nan
23166;BME280;11751;42.700;24.170;2023-04-30T08:03:41;93682.53;;;19.73;nan
23166;BME280;11751;42.700;24.170;2023-04-30T08:06:07;93677.19;;;19.79;nan
23166;BME280;11751;42.700;24.170;2023-04-30T08:08:36;93683.81;;;19.70;nan
23166;BME280;11751;42.700;24.170;2023-04-30T08:11:02;93683.84;;;19.83;nan
23166;BME280;11751;42.700;24.170;2023-04-30T08:13:27;93690.56;;;19.52;nan
23166;BME280;11751;42.700;24.170;2023-04-30T08:15:54;93693.44;;;19.65;nan
23166;BME280;11751;42.700;24.170;2023-04-30T08:18:22;93679.41;;;19.42;nan
23166;BME280;11751;42.700;24.170;2023-04-30T08:20:48;93693.03;;;18.48;nan
23166;BME280;11751;42.700;24.170;2023-04-30T08:23:13;93692.31;;;18.84;nan
23166;BME280;11751;42.700;24.170;2023-04-30T08:25:39;93687.81;;;19.04;nan
23166;BME280;11751;42.700;24.170;2023-04-30T08:28:05;93693.81;;;19.21;nan
23166;BME280;11751;42.700;24.170;2023-04-30T08:30:31;93688.13;;;19.46;nan
23166;BME280;11751;42.700;24.170;2023-04-30T08:32:56;93693.69;;;19.44;nan
23166;BME280;11751;42.700;24.170;2023-04-30T08:35:22;93692.16;;;19.30;nan
23166;BME280;11751;42.700;24.170;2023-04-30T08:37:47;93680.44;;;19.49;nan
23166;BME280;11751;42.700;24.170;2023-04-30T08:40:13;93684.34;;;19.05;nan
23166;BME280;11751;42.700;24.170;2023-04-30T08:42:44;93687.16;;;18.81;nan
23166;BME280;11751;42.700;24.170;2023-04-30T08:45:11;93686.00;;;18.86;nan
23166;BME280;11751;42.700;24.170;2023-04-30T08:47:38;93680.41;;;18.63;nan
23166;BME280;11751;42.700;24.170;2023-04-30T08:50:07;93678.25;;;18.04;nan
23166;BME280;11751;42.700;24.170;2023-04-30T08:52:33;93676.88;;;18.39;nan
23166;BME280;11751;42.700;24.170;2023-04-30T08:55:00;93682.25;;;18.70;nan
23166;BME280;11751;42.700;24.170;2023-04-30T08:57:26;93690.28;;;18.62;nan
23166;BME280;11751;42.700;24.170;2023-04-30T08:59:52;93683.03;;;18.47;nan
23166;BME280;11751;42.700;24.170;2023-04-30T09:02:18;93685.50;;;18.53;nan
23166;BME280;11751;42.700;24.170;2023-04-30T09:04:44;93694.59;;;18.63;nan
23166;BME280;11751;42.700;24.170;2023-04-30T09:07:11;93674.31;;;18.80;nan
23166;BME280;11751;42.700;24.170;2023-04-30T09:09:39;93688.44;;;19.02;nan
23166;BME280;11751;42.700;24.170;2023-04-30T09:12:16;93686.44;;;19.05;nan
23166;BME280;11751;42.700;24.170;2023-04-30T09:15:04;93693.59;;;18.70;nan
23166;BME280;11751;42.700;24.170;2023-04-30T09:17:33;93675.91;;;18.35;nan
23166;BME280;11751;42.700;24.170;2023-04-30T09:20:06;93686.94;;;18.65;nan
23166;BME280;11751;42.700;24.170;2023-04-30T09:22:33;93676.13;;;18.87;nan
23166;BME280;11751;42.700;24.170;2023-04-30T09:24:59;93681.91;;;18.64;nan
23166;BME280;11751;42.700;24.170;2023-04-30T09:27:25;93678.84;;;18.48;nan
23166;BME280;11751;42.700;24.170;2023-04-30T09:29:51;93680.78;;;18.57;nan
23166;BME280;11751;42.700;24.170;2023-04-30T09:32:16;93678.56;;;18.67;nan
23166;BME280;11751;42.700;24.170;2023-04-30T09:34:41;93675.81;;;18.81;nan
23166;BME280;11751;42.700;24.170;2023-04-30T09:37:08;93668.38;;;18.87;nan
23166;BME280;11751;42.700;24.170;2023-04-30T09:39:46;93667.06;;;19.13;nan
23166;BME280;11751;42.700;24.170;2023-04-30T09:42:12;93671.59;;;18.82;nan
23166;BME280;11751;42.700;24.170;2023-04-30T09:44:40;93664.84;;;19.11;nan
23166;BME280;11751;42.700;24.170;2023-04-30T09:47:16;93659.38;;;19.65;nan
23166;BME280;11751;42.700;24.170;2023-04-30T09:49:43;93654.63;;;20.08;nan
23166;BME280;11751;42.700;24.170;2023-04-30T09:52:09;93664.47;;;19.80;nan
23166;BME280;11751;42.700;24.170;2023-04-30T09:54:36;93650.22;;;20.05;nan
23166;BME280;11751;42.700;24.170;2023-04-30T09:57:02;93651.06;;;20.21;nan
23166;BME280;11751;42.700;24.170;2023-04-30T09:59:34;93652.00;;;20.52;nan
23166;BME280;11751;42.700;24.170;2023-04-30T10:02:02;93644.31;;;20.55;nan
23166;BME280;11751;42.700;24.170;2023-04-30T10:04:30;93636.72;;;19.92;nan
23166;BME280;11751;42.700;24.170;2023-04-30T10:06:57;93629.78;;;20.49;nan
23166;BME280;11751;42.700;24.170;2023-04-30T10:09:25;93630.06;;;20.68;nan
23166;BME280;11751;42.700;24.170;2023-04-30T10:11:54;93636.50;;;20.42;nan
23166;BME280;11751;42.700;24.170;2023-04-30T10:14:22;93636.59;;;19.90;nan
23166;BME280;11751;42.700;24.170;2023-04-30T10:19:35;93640.69;;;19.10;nan
23166;BME280;11751;42.700;24.170;2023-04-30T10:22:03;93642.13;;;19.36;nan
23166;BME280;11751;42.700;24.170;2023-04-30T10:24:30;93641.88;;;19.57;nan
23166;BME280;11751;42.700;24.170;2023-04-30T10:26:55;93638.78;;;19.78;nan
23166;BME280;11751;42.700;24.170;2023-04-30T10:29:21;93630.66;;;19.73;nan
23166;BME280;11751;42.700;24.170;2023-04-30T10:31:48;93636.59;;;19.52;nan
23166;BME280;11751;42.700;24.170;2023-04-30T10:37:10;93634.34;;;19.75;nan
23166;BME280;11751;42.700;24.170;2023-04-30T10:39:39;93627.09;;;19.72;nan
23166;BME280;11751;42.700;24.170;2023-04-30T10:42:05;93621.38;;;19.97;nan
23166;BME280;11751;42.700;24.170;2023-04-30T10:44:37;93632.00;;;20.10;nan
23166;BME280;11751;42.700;24.170;2023-04-30T10:47:05;93615.34;;;20.45;nan
23166;BME280;11751;42.700;24.170;2023-04-30T10:49:31;93624.69;;;20.87;nan
23166;BME280;11751;42.700;24.170;2023-04-30T10:52:03;93615.34;;;21.00;nan
23166;BME280;11751;42.700;24.170;2023-04-30T10:54:38;93613.28;;;21.45;nan
23166;BME280;11751;42.700;24.170;2023-04-30T10:57:14;93602.81;;;21.50;nan
23166;BME280;11751;42.700;24.170;2023-04-30T11:02:39;93603.16;;;21.42;nan
23166;BME280;11751;42.700;24.170;2023-04-30T11:07:31;93629.75;;;20.75;nan
23166;BME280;11751;42.700;24.170;2023-04-30T11:09:57;93621.59;;;20.28;nan
23166;BME280;11751;42.700;24.170;2023-04-30T11:12:25;93626.59;;;19.89;nan
23166;BME280;11751;42.700;24.170;2023-04-30T11:15:11;93617.81;;;19.72;nan
23166;BME280;11751;42.700;24.170;2023-04-30T11:17:37;93640.88;;;19.39;nan
23166;BME280;11751;42.700;24.170;2023-04-30T11:20:03;93626.81;;;19.16;nan
23166;BME280;11751;42.700;24.170;2023-04-30T11:22:29;93620.22;;;19.00;nan
23166;BME280;11751;42.700;24.170;2023-04-30T11:25:04;93626.44;;;18.86;nan
23166;BME280;11751;42.700;24.170;2023-04-30T11:27:32;93624.75;;;18.81;nan
23166;BME280;11751;42.700;24.170;2023-04-30T11:29:58;93615.81;;;19.22;nan
23166;BME280;11751;42.700;24.170;2023-04-30T11:32:30;93614.53;;;19.50;nan
23166;BME280;11751;42.700;24.170;2023-04-30T11:34:57;93621.69;;;19.51;nan
23166;BME280;11751;42.700;24.170;2023-04-30T11:37:33;93616.56;;;19.61;nan
23166;BME280;11751;42.700;24.170;2023-04-30T11:40:02;93616.06;;;19.78;nan
23166;BME280;11751;42.700;24.170;2023-04-30T11:42:28;93625.63;;;19.71;nan
23166;BME280;11751;42.700;24.170;2023-04-30T11:45:04;93625.13;;;19.50;nan
23166;BME280;11751;42.700;24.170;2023-04-30T11:47:47;93632.69;;;19.45;nan
23166;BME280;11751;42.700;24.170;2023-04-30T11:50:14;93636.00;;;19.03;nan
23166;BME280;11751;42.700;24.170;2023-04-30T11:52:41;93636.97;;;19.08;nan
23166;BME280;11751;42.700;24.170;2023-04-30T11:55:12;93638.84;;;19.28;nan
23166;BME280;11751;42.700;24.170;2023-04-30T11:57:39;93633.28;;;19.30;nan
23166;BME280;11751;42.700;24.170;2023-04-30T12:00:29;93629.19;;;19.08;nan
23166;BME280;11751;42.700;24.170;2023-04-30T12:02:55;93626.09;;;19.04;nan
23166;BME280;11751;42.700;24.170;2023-04-30T12:05:23;93615.91;;;18.99;nan
23166;BME280;11751;42.700;24.170;2023-04-30T12:08:03;93631.06;;;19.29;nan
23166;BME280;11751;42.700;24.170;2023-04-30T12:10:31;93614.16;;;19.69;nan
23166;BME280;11751;42.700;24.170;2023-04-30T12:12:56;93615.91;;;20.01;nan
23166;BME280;11751;42.700;24.170;2023-04-30T12:15:24;93615.00;;;19.85;nan
23166;BME280;11751;42.700;24.170;2023-04-30T12:17:57;93618.44;;;19.57;nan
23166;BME280;11751;42.700;24.170;2023-04-30T12:20:25;93623.06;;;19.25;nan
23166;BME280;11751;42.700;24.170;2023-04-30T12:22:52;93645.63;;;18.98;nan
23166;BME280;11751;42.700;24.170;2023-04-30T12:25:19;93640.66;;;18.15;nan
23166;BME280;11751;42.700;24.170;2023-04-30T12:27:46;93650.50;;;18.02;nan
23166;BME280;11751;42.700;24.170;2023-04-30T12:30:12;93648.78;;;17.75;nan
23166;BME280;11751;42.700;24.170;2023-04-30T12:32:42;93652.81;;;17.37;nan
23166;BME280;11751;42.700;24.170;2023-04-30T12:35:13;93649.66;;;16.78;nan
23166;BME280;11751;42.700;24.170;2023-04-30T12:37:46;93653.91;;;16.68;nan
23166;BME280;11751;42.700;24.170;2023-04-30T12:40:12;93659.09;;;16.50;nan
23166;BME280;11751;42.700;24.170;2023-04-30T12:42:39;93650.31;;;16.25;nan
23166;BME280;11751;42.700;24.170;2023-04-30T12:45:05;93652.97;;;16.33;nan
23166;BME280;11751;42.700;24.170;2023-04-30T12:47:31;93648.59;;;16.21;nan
23166;BME280;11751;42.700;24.170;2023-04-30T12:49:57;93646.75;;;16.25;nan
23166;BME280;11751;42.700;24.170;2023-04-30T12:52:24;93649.91;;;16.20;nan
23166;BME280;11751;42.700;24.170;2023-04-30T12:54:50;93657.00;;;16.30;nan
23166;BME280;11751;42.700;24.170;2023-04-30T12:57:16;93658.91;;;16.37;nan
23166;BME280;11751;42.700;24.170;2023-04-30T13:02:22;93651.34;;;16.09;nan
23166;BME280;11751;42.700;24.170;2023-04-30T13:04:49;93648.38;;;16.07;nan
23166;BME280;11751;42.700;24.170;2023-04-30T13:07:15;93651.94;;;16.28;nan
23166;BME280;11751;42.700;24.170;2023-04-30T13:09:41;93640.81;;;16.51;nan
23166;BME280;11751;42.700;24.170;2023-04-30T13:12:06;93649.81;;;16.38;nan
23166;BME280;11751;42.700;24.170;2023-04-30T13:14:32;93656.22;;;16.39;nan
23166;BME280;11751;42.700;24.170;2023-04-30T13:16:57;93659.25;;;16.31;nan
23166;BME280;11751;42.700;24.170;2023-04-30T13:19:23;93662.34;;;16.05;nan
23166;BME280;11751;42.700;24.170;2023-04-30T13:21:50;93675.25;;;15.87;nan
23166;BME280;11751;42.700;24.170;2023-04-30T13:24:15;93670.88;;;15.65;nan
23166;BME280;11751;42.700;24.170;2023-04-30T13:26:42;93660.97;;;15.55;nan
23166;BME280;11751;42.700;24.170;2023-04-30T13:29:07;93659.50;;;15.84;nan
23166;BME280;11751;42.700;24.170;2023-04-30T13:31:33;93657.13;;;15.81;nan
23166;BME280;11751;42.700;24.170;2023-04-30T13:33:58;93655.31;;;15.85;nan
23166;BME280;11751;42.700;24.170;2023-04-30T13:36:24;93644.59;;;16.14;nan
23166;BME280;11751;42.700;24.170;2023-04-30T13:38:50;93657.28;;;16.55;nan
23166;BME280;11751;42.700;24.170;2023-04-30T13:41:15;93632.78;;;16.69;nan